Latest Weather Observations for Wilcannia Airport

IDN60801

Issued at 6:22 am EDT Wednesday 13 November 2019 (issued every 10 minutes, with the page automatically refreshed every 10 minutes)

About weather observations | Map of weather stations | Latest weather observations for NSW | Other Formats
Station Details ID: 046012 Name: WILCANNIA AERODROME AWS Lat: -31.52 Lon: 143.38 Height: 94.3 m
Data from the previous 72 hours. | See also: Recent months at Wilcannia Airport
Date/Time
EDT
Temp
°C
App
Temp
°C
Dew
Point
°C
Rel
Hum
%
Delta-T
°C
Wind Press
QNH
hPa
Press
MSL
hPa
Rain since
9am
mm
Dir  Spd
km/h
Gust
km/h
Spd
kts
Gust
kts
13/06:00am 11.7 6.0 0.8 47 4.5 SSW 20 28 11 15 1020.2 1019.8 0.0
13/05:30am 12.1 6.7 1.1 47 4.7 SSW 19 26 10 14 1019.8 1019.4 0.0
13/05:00am 12.6 7.0 1.0 45 4.9 S 20 28 11 15 1019.5 1019.1 0.0
13/04:30am 13.3 6.1 1.0 43 5.2 SSW 28 41 15 22 1019.4 1019.0 0.0
13/04:00am 13.7 7.3 0.7 41 5.5 SSW 24 37 13 20 1019.2 1018.8 0.0
13/03:30am 14.0 7.1 0.3 39 5.8 S 26 41 14 22 1019.0 1018.6 0.0
13/03:00am 14.5 7.2 0.0 37 6.1 SSW 28 35 15 19 1018.8 1018.4 0.0
13/02:30am 15.0 8.3 -1.1 33 6.7 S 24 33 13 18 1018.6 1018.2 0.0
13/02:00am 15.5 9.1 -1.5 31 7.0 S 22 32 12 17 1018.6 1018.2 0.0
13/01:30am 16.3 9.5 -1.7 29 7.5 S 24 35 13 19 1018.6 1018.2 0.0
13/01:00am 16.8 9.9 -2.3 27 7.8 SSW 24 32 13 17 1018.6 1018.2 0.0
13/12:30am 17.3 10.1 -1.9 27 8.0 SSW 26 35 14 19 1018.5 1018.1 0.0
13/12:00am 17.7 11.3 -2.0 26 8.2 SSW 22 30 12 16 1018.3 1017.9 0.0
 
Date/Time
EDT
Temp
°C
App
Temp
°C
Dew
Point
°C
Rel
Hum
%
Delta-T
°C
Wind Press
QNH
hPa
Press
MSL
hPa
Rain since
9am
mm
Dir  Spd
km/h
Gust
km/h
Spd
kts
Gust
kts
12/11:30pm 18.3 10.3 -2.0 25 8.5 SSW 30 41 16 22 1017.9 1017.5 0.0
12/11:00pm 18.7 10.8 -1.7 25 8.6 SSW 30 41 16 22 1017.6 1017.2 0.0
12/10:30pm 19.0 12.2 -2.0 24 8.9 SSW 24 35 13 19 1017.3 1016.9 0.0
12/10:00pm 19.5 12.2 -2.8 22 9.3 SSW 26 37 14 20 1016.9 1016.5 0.0
12/09:30pm 20.3 11.3 -2.7 21 9.7 SSW 35 50 19 27 1016.4 1016.0 0.0
12/09:00pm 20.9 12.6 -5.0 17 10.5 SW 30 41 16 22 1015.7 1015.3 0.0
12/08:30pm 21.3 13.3 -5.5 16 10.8 SW 28 39 15 21 1015.1 1014.7 0.0
12/08:00pm 21.8 13.1 -5.1 16 11.0 SW 32 44 17 24 1014.6 1014.1 0.0
12/07:30pm 22.5 13.9 -4.5 16 11.2 SSW 32 43 17 23 1014.0 1013.5 0.0
12/07:00pm 23.0 14.4 -4.1 16 11.4 SW 32 41 17 22 1013.5 1013.0 0.0
12/06:30pm 23.2 14.5 -3.2 17 11.3 SSW 33 46 18 25 1013.1 1012.6 0.0
12/06:00pm 24.2 15.9 -0.2 20 11.2 SW 33 44 18 24 1012.7 1012.3 0.0
12/05:30pm 24.8 16.3 1.0 21 11.2 SSW 35 48 19 26 1012.6 1012.2 0.0
12/05:00pm 24.7 16.1 0.3 20 11.3 SSW 35 50 19 27 1012.4 1012.0 0.0
12/04:30pm 25.1 16.9 0.6 20 11.5 SW 33 50 18 27 1012.1 1011.7 0.0
12/04:00pm 26.1 18.7 -0.8 17 12.4 SW 28 50 15 27 1012.2 1011.8 0.0
12/03:30pm 26.1 18.1 0.7 19 12.0 SW 32 44 17 24 1012.2 1011.8 0.0
12/03:00pm 25.7 17.3 -1.2 17 12.2 SW 33 50 18 27 1012.3 1011.9 0.0
12/02:30pm 25.5 17.1 1.6 21 11.4 SSW 35 46 19 25 1012.4 1012.0 0.0
12/02:00pm 25.9 18.5 3.8 24 11.0 SW 32 43 17 23 1012.3 1011.9 0.0
12/01:30pm 25.9 19.6 5.5 27 10.5 SW 28 43 15 23 1012.3 1011.9 0.0
12/01:08pm 25.1 18.9 6.3 30 9.8 SSW 28 46 15 25 1012.1 1011.7 0.0
12/01:00pm 24.7 18.1 6.0 30 9.6 SW 30 43 16 23 1012.2 1011.8 0.0
12/12:30pm 24.0 17.2 6.7 33 9.0 SSW 32 48 17 26 1012.4 1012.0 0.0
12/12:14pm 24.4 17.7 7.5 34 8.9 SSW 32 50 17 27 1012.1 1011.7 0.0
12/12:00pm 24.6 17.9 8.1 35 8.8 SSW 33 48 18 26 1012.0 1011.6 0.0
12/11:54am 24.1 18.2 7.7 35 8.7 SW 28 48 15 26 1012.0 1011.6 0.0
12/11:30am 24.1 18.0 8.1 36 8.5 SSW 30 44 16 24 1011.9 1011.5 0.0
12/11:00am 23.2 16.5 8.1 38 8.0 SSW 33 46 18 25 1012.1 1011.7 0.0
12/10:30am 23.3 16.9 8.6 39 7.9 SSW 32 41 17 22 1011.8 1011.4 0.0
12/10:00am 23.3 15.1 6.6 34 8.6 SSW 39 48 21 26 1011.4 1011.0 0.0
12/09:30am 27.7 20.0 -3.2 13 13.8 WSW 28 39 15 21 1010.7 1010.3 0.0
12/09:00am 27.2 19.2 -5.8 11 14.0 W 28 35 15 19 1010.4 1010.0 0.0
12/08:30am 25.3 18.4 -6.1 12 13.0 W 22 33 12 18 1010.4 1010.0 0.0
12/08:00am 24.2 17.0 -4.9 14 12.2 NW 24 32 13 17 1009.4 1009.0 0.0
12/07:30am 22.3 15.9 -4.7 16 11.1 NNW 20 28 11 15 1008.9 1008.5 0.0
12/07:00am 20.8 15.0 -5.1 17 10.5 NNW 17 22 9 12 1008.7 1008.3 0.0
12/06:30am 20.4 14.1 -5.4 17 10.3 NNW 19 24 10 13 1008.4 1008.0 0.0
12/06:00am 20.4 14.1 -5.4 17 10.3 NNW 19 24 10 13 1008.1 1007.7 0.0
12/05:30am 21.0 14.5 -5.7 16 10.7 NNW 20 28 11 15 1007.8 1007.4 0.0
12/05:00am 21.2 14.7 -5.6 16 10.8 N 20 28 11 15 1007.9 1007.5 0.0
12/04:30am 21.0 14.7 -5.7 16 10.7 NNW 19 24 10 13 1008.3 1007.9 0.0
12/04:00am 21.9 15.4 -5.9 15 11.2 N 20 26 11 14 1008.3 1007.9 0.0
12/03:30am 22.6 15.7 -6.2 14 11.6 N 22 30 12 16 1008.6 1008.2 0.0
12/03:00am 22.1 15.6 -5.7 15 11.3 N 20 28 11 15 1008.8 1008.4 0.0
12/02:30am 21.7 15.5 -5.2 16 10.9 N 19 22 10 12 1009.4 1009.0 0.0
12/02:00am 21.7 15.8 -5.2 16 10.9 N 17 19 9 10 1009.8 1009.4 0.0
12/01:30am 22.7 16.8 -5.2 15 11.4 N 17 19 9 10 1010.0 1009.6 0.0
12/01:00am 22.7 16.8 -5.2 15 11.5 N 17 19 9 10 1010.1 1009.7 0.0
12/12:30am 22.8 16.9 -5.2 15 11.5 N 17 19 9 10 1010.4 1010.0 0.0
12/12:00am 22.4 16.9 -5.5 15 11.4 N 15 17 8 9 1010.7 1010.3 0.0
 
Date/Time
EDT
Temp
°C
App
Temp
°C
Dew
Point
°C
Rel
Hum
%
Delta-T
°C
Wind Press
QNH
hPa
Press
MSL
hPa
Rain since
9am
mm
Dir  Spd
km/h
Gust
km/h
Spd
kts
Gust
kts
11/11:30pm 22.3 16.8 -5.6 15 11.3 N 15 17 8 9 1011.0 1010.6 0.0
11/11:00pm 23.1 17.7 -4.9 15 11.6 N 15 17 8 9 1011.0 1010.6 0.0
11/10:30pm 23.6 18.2 -4.5 15 11.8 N 15 17 8 9 1011.2 1010.8 0.0
11/10:00pm 23.7 18.3 -4.4 15 11.8 N 15 17 8 9 1011.1 1010.7 0.0
11/09:30pm 24.5 19.1 -4.7 14 12.3 N 15 17 8 9 1010.9 1010.5 0.0
11/09:00pm 24.4 19.3 -4.8 14 12.3 NNW 13 15 7 8 1010.8 1010.4 0.0
11/08:30pm 26.1 21.0 -5.5 12 13.3 NNW 13 15 7 8 1010.6 1010.2 0.0
11/08:00pm 28.7 22.9 -4.6 11 14.6 NNW 17 20 9 11 1010.6 1010.2 0.0
11/07:30pm 30.1 23.9 -4.8 10 15.4 N 19 24 10 13 1010.6 1010.2 0.0
11/07:00pm 31.0 24.7 -5.5 9 16.1 NNW 19 28 10 15 1010.5 1010.1 0.0
11/06:30pm 31.3 24.9 -5.3 9 16.2 NNW 20 32 11 17 1010.5 1010.1 0.0
11/06:00pm 32.1 26.7 -4.7 9 16.6 N 15 26 8 14 1010.5 1010.1 0.0
11/05:30pm 32.1 26.3 -4.7 9 16.5 NNW 17 33 9 18 1010.7 1010.3 0.0
11/05:00pm 32.1 25.3 -4.7 9 16.5 NNW 22 33 12 18 1011.0 1010.6 0.0
11/04:30pm 32.6 26.5 -4.3 9 16.8 NNW 19 30 10 16 1011.4 1011.0 0.0
11/04:00pm 32.1 26.3 -4.7 9 16.5 NNW 17 28 9 15 1011.8 1011.4 0.0
11/03:30pm 31.6 25.4 -5.1 9 16.3 N 19 28 10 15 1012.3 1011.9 0.0
11/03:00pm 31.3 25.2 -3.9 10 15.9 NNE 19 28 10 15 1012.9 1012.4 0.0
11/02:30pm 30.8 24.7 -4.3 10 15.7 NW 19 33 10 18 1013.6 1013.1 0.0
11/02:00pm 30.6 25.3 -3.2 11 15.4 N 15 32 8 17 1014.1 1013.6 0.0
11/01:30pm 30.7 25.5 -3.1 11 15.4 NNW 15 24 8 13 1014.6 1014.1 0.0
11/01:00pm 29.3 23.7 -3.0 12 14.6 NNW 17 24 9 13 1015.2 1014.8 0.0
11/12:30pm 28.5 23.2 -3.6 12 14.3 NNW 15 26 8 14 1015.6 1015.2 0.0
11/12:00pm 28.2 23.4 -2.8 13 13.9 NW 13 22 7 12 1016.1 1015.7 0.0
11/11:30am 27.9 22.3 -3.0 13 13.8 NNW 17 32 9 17 1016.4 1016.0 0.0
11/11:00am 27.7 22.6 -2.2 14 13.5 N 15 26 8 14 1016.8 1016.4 0.0
11/10:30am 26.6 20.7 -2.1 15 12.9 N 19 30 10 16 1016.8 1016.4 0.0
11/10:00am 25.5 19.6 -2.1 16 12.3 N 19 26 10 14 1016.9 1016.5 0.0
11/09:30am 24.9 19.9 -1.0 18 11.7 N 15 20 8 11 1017.0 1016.6 0.0
11/09:00am 23.5 19.0 -0.1 21 10.7 NNE 13 19 7 10 1017.0 1016.6 0.0
11/08:30am 21.9 17.1 -0.1 23 9.9 NNE 15 19 8 10 1016.9 1016.5 0.0
11/08:00am 20.6 16.6 0.4 26 9.1 NNE 11 19 6 10 1016.6 1016.2 0.0
11/07:30am 18.2 14.7 1.3 32 7.6 N 9 13 5 7 1016.5 1016.1 0.0
11/07:00am 15.5 11.7 1.6 39 6.1 NNE 11 13 6 7 1016.2 1015.8 0.0
11/06:30am 12.8 8.1 1.2 45 4.9 NNE 15 17 8 9 1015.9 1015.5 0.0
11/06:00am 12.4 8.1 0.8 45 4.9 NNE 13 13 7 7 1015.7 1015.3 0.0
11/05:30am 12.8 8.5 0.9 44 5.0 NNE 13 13 7 7 1015.4 1015.0 0.0
11/05:00am 12.8 8.9 0.9 44 5.0 NE 11 13 6 7 1015.3 1014.9 0.0
11/04:30am 13.1 8.8 0.8 43 5.2 NE 13 13 7 7 1015.2 1014.8 0.0
11/04:00am 12.4 8.9 1.1 46 4.8 E 9 11 5 6 1015.3 1014.9 0.0
11/03:30am 11.8 8.3 1.4 49 4.4 ESE 9 9 5 5 1015.5 1015.1 0.0
11/03:00am 11.1 7.6 1.1 50 4.2 SE 9 11 5 6 1015.7 1015.3 0.0
11/02:30am 11.7 7.7 0.5 46 4.7 SSE 11 11 6 6 1015.8 1015.4 0.0
11/02:00am 11.8 7.8 0.6 46 4.7 SSE 11 11 6 6 1015.9 1015.5 0.0
11/01:30am 12.5 8.9 0.9 45 4.9 SSE 9 9 5 5 1016.5 1016.1 0.0
11/01:00am 13.2 9.5 -0.1 40 5.5 S 9 11 5 6 1016.7 1016.3 0.0
11/12:30am 12.9 9.2 0.0 41 5.4 SSE 9 11 5 6 1016.9 1016.5 0.0
11/12:00am 13.5 9.6 -1.3 36 6.0 SSE 9 11 5 6 1016.9 1016.5 0.0
 
Date/Time
EDT
Temp
°C
App
Temp
°C
Dew
Point
°C
Rel
Hum
%
Delta-T
°C
Wind Press
QNH
hPa
Press
MSL
hPa
Rain since
9am
mm
Dir  Spd
km/h
Gust
km/h
Spd
kts
Gust
kts
10/11:30pm 14.5 10.3 -1.2 34 6.5 S 11 11 6 6 1016.9 1016.5 0.0
10/11:00pm 14.5 10.4 0.0 37 6.1 SSE 11 13 6 7 1016.8 1016.4 0.0
10/10:30pm 15.2 11.1 -0.1 35 6.5 SSE 11 11 6 6 1016.8 1016.4 0.0
10/10:00pm 16.1 12.0 -0.2 33 6.9 SSE 11 11 6 6 1016.8 1016.4 0.0
10/09:30pm 17.1 13.3 -0.6 30 7.6 SSE 9 9 5 5 1016.5 1016.1 0.0
10/09:00pm 18.2 14.0 -1.1 27 8.2 S 11 11 6 6 1016.3 1015.9 0.0
10/08:30pm 20.0 15.8 -1.2 24 9.2 S 11 11 6 6 1016.1 1015.7 0.0
10/08:00pm 22.9 18.9 -1.9 19 10.9 S 9 11 5 6 1016.0 1015.6 0.0
10/07:30pm 25.0 20.9 -3.4 15 12.3 SSW 9 13 5 7 1015.8 1015.4 0.0
10/07:00pm 25.6 20.0 -2.9 15 12.5 SSW 17 24 9 13 1015.8 1015.4 0.0
10/06:30pm 26.3 20.7 -3.3 14 13.0 SW 17 26 9 14 1015.8 1015.4 0.0
10/06:00pm 26.5 20.4 -2.2 15 12.9 SW 20 28 11 15 1015.9 1015.5 0.0
10/05:30pm 26.3 20.4 -2.4 15 12.8 SSW 19 28 10 15 1016.0 1015.6 0.0
10/05:00pm 26.4 20.8 -3.2 14 13.0 SSW 17 28 9 15 1016.2 1015.8 0.0
10/04:30pm 26.4 21.3 -2.3 15 12.9 SW 15 26 8 14 1016.5 1016.1 0.0
10/04:00pm 25.8 20.3 -1.9 16 12.4 SW 17 26 9 14 1016.9 1016.5 0.0
10/03:30pm 25.2 20.1 -1.6 17 12.0 SW 15 28 8 15 1017.5 1017.1 0.0
10/03:00pm 25.3 20.7 1.4 21 11.3 SSW 15 24 8 13 1018.0 1017.6 0.0
10/02:30pm 24.6 19.6 1.5 22 10.9 SW 17 32 9 17 1018.5 1018.1 0.0
10/02:00pm 23.3 18.4 2.2 25 10.0 SW 17 33 9 18 1019.1 1018.7 0.0
10/01:30pm 22.4 17.1 2.0 26 9.6 SSW 19 28 10 15 1019.4 1019.0 0.0
10/01:00pm 22.0 16.8 2.2 27 9.3 SW 19 28 10 15 1019.9 1019.5 0.0
10/12:30pm 21.2 16.6 3.9 32 8.4 SW 17 28 9 15 1020.0 1019.6 0.0
10/12:00pm 20.3 15.3 3.5 33 8.0 SSW 19 28 10 15 1020.7 1020.3 0.0
10/11:30am 19.2 14.6 3.8 36 7.3 SSW 17 26 9 14 1021.0 1020.6 0.0
10/11:00am 18.2 14.1 4.4 40 6.6 SW 15 24 8 13 1021.3 1020.9 0.0
10/10:30am 17.5 13.4 4.5 42 6.2 SSW 15 28 8 15 1021.5 1021.1 0.0
10/10:00am 16.5 12.4 4.2 44 5.8 SW 15 24 8 13 1021.6 1021.2 0.0
10/09:30am 16.5 12.1 4.5 45 5.7 SW 17 26 9 14 1021.8 1021.4 0.0
10/09:00am 15.3 9.9 4.7 49 5.0 S 22 30 12 16 1021.6 1021.2 0.0
10/08:30am 14.5 9.6 4.2 50 4.8 SSW 19 26 10 14 1021.3 1020.9 0.0
10/08:00am 14.0 9.5 4.0 51 4.6 SSW 17 24 9 13 1021.0 1020.6 0.0
10/07:30am 13.0 9.2 3.7 53 4.2 SSW 13 17 7 9 1020.6 1020.2 0.0
10/07:00am 11.9 8.4 3.4 56 3.8 SSW 11 13 6 7 1020.3 1019.9 0.0
10/06:30am 11.5 7.5 3.0 56 3.7 SSW 13 19 7 10 1019.8 1019.4 0.0

Other formats

Comma delimited format used in spreadsheet applications
http://www.bom.gov.au/fwo/IDN60801/IDN60801.95695.axf

JavaScript Object Notation format (JSON) in row-major order
http://www.bom.gov.au/fwo/IDN60801/IDN60801.95695.json

Data quality

Most of these data are generated automatically and are frequently updated. Quality checks on data are not normally performed. It is possible for incorrect values to appear. Refer to information at About Latest Weather Observations and please check the disclaimer before using these data.